createdAt,value
2023-03-20T00:00:52.852Z,9.20
2023-03-20T00:03:21.931Z,9.20
2023-03-20T00:05:51.660Z,9.20
2023-03-20T00:08:20.187Z,9.10
2023-03-20T00:10:50.353Z,9.10
2023-03-20T00:13:26.191Z,9.10
2023-03-20T00:15:55.073Z,9.10
2023-03-20T00:18:25.056Z,9.00
2023-03-20T00:20:54.428Z,9.00
2023-03-20T00:23:23.225Z,9.00
2023-03-20T00:25:53.904Z,9.00
2023-03-20T00:28:47.069Z,9.00
2023-03-20T00:31:24.747Z,8.90
2023-03-20T00:33:54.290Z,8.90
2023-03-20T00:36:22.911Z,8.90
2023-03-20T00:38:51.635Z,8.90
2023-03-20T00:41:25.895Z,8.90
2023-03-20T00:43:58.014Z,8.90
2023-03-20T00:46:27.157Z,8.90
2023-03-20T00:48:57.061Z,8.90
2023-03-20T00:51:25.656Z,8.90
2023-03-20T00:53:54.336Z,8.90
2023-03-20T00:56:34.181Z,8.80
2023-03-20T00:59:05.411Z,8.80
2023-03-20T01:01:34.259Z,8.70
2023-03-20T01:04:03.255Z,8.70
2023-03-20T01:06:31.967Z,8.70
2023-03-20T01:09:04.308Z,8.70
2023-03-20T01:11:34.589Z,8.70
2023-03-20T01:14:04.042Z,8.70
2023-03-20T01:16:32.664Z,8.70
2023-03-20T01:19:01.578Z,8.70
2023-03-20T01:21:30.185Z,8.70
2023-03-20T01:24:02.528Z,8.80
2023-03-20T01:26:36.375Z,8.80
2023-03-20T01:29:05.532Z,8.70
2023-03-20T01:31:34.175Z,8.70
2023-03-20T01:34:04.525Z,8.70
2023-03-20T01:36:33.179Z,8.70
2023-03-20T01:39:02.027Z,8.80
2023-03-20T01:41:31.786Z,8.80
2023-03-20T01:44:20.964Z,8.80
2023-03-20T01:46:49.843Z,8.70
2023-03-20T01:50:03.188Z,8.70
2023-03-20T01:52:31.994Z,8.70
2023-03-20T01:55:01.207Z,8.70
2023-03-20T01:57:30.086Z,8.60
2023-03-20T02:00:05.613Z,8.60
2023-03-20T02:02:34.617Z,8.60
2023-03-20T02:05:08.441Z,8.60
2023-03-20T02:07:38.502Z,8.60
2023-03-20T02:10:09.773Z,8.60
2023-03-20T02:12:39.791Z,8.60
2023-03-20T02:15:10.910Z,8.60
2023-03-20T02:17:39.501Z,8.60
2023-03-20T02:20:16.086Z,8.50
2023-03-20T02:23:14.466Z,8.50
2023-03-20T02:26:12.306Z,8.50
2023-03-20T02:29:07.652Z,8.50
2023-03-20T02:32:17.931Z,8.50
2023-03-20T02:35:26.051Z,8.50
2023-03-20T02:38:26.308Z,8.50
2023-03-20T02:41:00.607Z,8.50
2023-03-20T02:43:42.368Z,8.60
2023-03-20T02:46:17.308Z,8.60
2023-03-20T02:48:56.123Z,8.60
2023-03-20T02:51:33.443Z,8.60
2023-03-20T02:54:12.630Z,8.50
2023-03-20T02:56:55.166Z,8.50
2023-03-20T02:59:31.234Z,8.50
2023-03-20T03:02:08.072Z,8.60
2023-03-20T03:04:39.812Z,8.60
2023-03-20T03:07:12.214Z,8.60
2023-03-20T03:09:44.986Z,8.60
2023-03-20T03:12:18.153Z,8.70
2023-03-20T03:14:50.493Z,8.70
2023-03-20T03:17:24.701Z,8.70
2023-03-20T03:19:57.753Z,8.60
2023-03-20T03:22:27.346Z,8.60
2023-03-20T03:24:58.865Z,8.50
2023-03-20T03:27:30.891Z,8.50
2023-03-20T03:30:03.414Z,8.50
2023-03-20T03:32:35.052Z,8.50
2023-03-20T03:35:06.145Z,8.50
2023-03-20T03:37:47.131Z,8.50
2023-03-20T03:40:25.491Z,8.50
2023-03-20T03:43:01.028Z,8.50
2023-03-20T03:45:37.895Z,8.50
2023-03-20T03:48:12.412Z,8.60
2023-03-20T03:50:49.018Z,8.60
2023-03-20T03:53:21.070Z,8.60
2023-03-20T03:55:55.547Z,8.60
2023-03-20T03:58:27.932Z,8.60
2023-03-20T04:01:52.432Z,8.60
2023-03-20T04:04:23.584Z,8.60
2023-03-20T04:06:52.842Z,8.60
2023-03-20T04:09:21.555Z,8.50
2023-03-20T04:11:53.088Z,8.60
2023-03-20T04:14:22.635Z,8.60
2023-03-20T04:16:51.316Z,8.60
2023-03-20T04:19:20.929Z,8.70
2023-03-20T04:21:49.429Z,8.60
2023-03-20T04:24:18.129Z,8.60
2023-03-20T04:26:46.798Z,8.60
2023-03-20T04:29:17.581Z,8.70
2023-03-20T04:31:46.258Z,8.60
2023-03-20T04:34:15.258Z,8.70
2023-03-20T04:36:43.898Z,8.60
2023-03-20T04:39:12.613Z,8.70
2023-03-20T04:41:41.452Z,8.70
2023-03-20T04:44:12.210Z,8.70
2023-03-20T04:46:42.323Z,8.80
2023-03-20T04:49:10.835Z,8.70
2023-03-20T04:51:39.479Z,8.70
2023-03-20T04:54:08.290Z,8.70
2023-03-20T04:56:37.083Z,8.60
2023-03-20T04:59:05.805Z,8.60
2023-03-20T05:01:34.399Z,8.60
2023-03-20T05:04:05.733Z,8.60
2023-03-20T05:06:34.785Z,8.60
2023-03-20T05:09:04.207Z,8.60
2023-03-20T05:11:32.839Z,8.60
2023-03-20T05:14:01.655Z,8.60
2023-03-20T05:16:30.239Z,8.60
2023-03-20T05:18:58.875Z,8.60
2023-03-20T05:21:28.816Z,8.60
2023-03-20T05:23:57.332Z,8.60
2023-03-20T05:26:26.011Z,8.60
2023-03-20T05:28:54.632Z,8.60
2023-03-20T05:31:23.402Z,8.60
2023-03-20T05:33:52.324Z,8.70
2023-03-20T05:36:21.041Z,8.70
2023-03-20T05:38:51.149Z,8.60
2023-03-20T05:41:19.892Z,8.60
2023-03-20T05:43:48.951Z,8.60
2023-03-20T05:46:17.620Z,8.70
2023-03-20T05:48:46.532Z,8.70
2023-03-20T05:51:15.114Z,8.70
2023-03-20T05:53:43.750Z,8.70
2023-03-20T05:56:14.002Z,8.80
2023-03-20T05:58:43.449Z,8.80
2023-03-20T06:01:11.951Z,8.70
2023-03-20T06:03:40.967Z,8.70
2023-03-20T06:06:10.723Z,8.80
2023-03-20T06:08:39.417Z,8.80
2023-03-20T06:11:08.459Z,8.90
2023-03-20T06:13:38.607Z,8.90
2023-03-20T06:16:10.463Z,8.90
2023-03-20T06:18:41.276Z,8.90
2023-03-20T06:21:12.041Z,8.90
2023-03-20T06:23:40.942Z,9.00
2023-03-20T06:26:09.794Z,9.00
2023-03-20T06:28:39.793Z,9.00
2023-03-20T06:31:10.154Z,8.90
2023-03-20T06:33:39.692Z,8.90
2023-03-20T06:36:08.961Z,9.00
2023-03-20T06:38:38.931Z,9.00
2023-03-20T06:41:08.635Z,9.00
2023-03-20T06:43:40.229Z,9.10
2023-03-20T06:46:09.649Z,9.00
2023-03-20T06:48:39.331Z,9.10
2023-03-20T06:51:08.389Z,9.10
2023-03-20T06:53:38.724Z,9.10
2023-03-20T06:56:09.341Z,9.10
2023-03-20T06:58:41.687Z,9.00
2023-03-20T07:01:15.509Z,9.00
2023-03-20T07:03:45.292Z,9.00
2023-03-20T07:06:19.400Z,9.10
2023-03-20T07:08:48.310Z,9.10
2023-03-20T07:11:18.320Z,9.10
2023-03-20T07:13:53.713Z,9.10
2023-03-20T07:16:22.728Z,9.10
2023-03-20T07:18:51.356Z,9.10
2023-03-20T07:21:22.578Z,9.00
2023-03-20T07:23:51.167Z,9.10
2023-03-20T07:26:19.852Z,9.10
2023-03-20T07:28:49.822Z,9.10
2023-03-20T07:31:22.224Z,9.20
2023-03-20T07:33:51.083Z,9.20
2023-03-20T07:36:20.222Z,9.20
2023-03-20T07:38:52.020Z,9.20
2023-03-20T07:41:24.087Z,9.20
2023-03-20T07:43:54.206Z,9.20
2023-03-20T07:46:22.876Z,9.20
2023-03-20T07:48:53.911Z,9.30
2023-03-20T07:51:22.722Z,9.30
2023-03-20T07:53:53.599Z,9.30
2023-03-20T07:56:22.422Z,9.20
2023-03-20T07:58:51.217Z,9.30
2023-03-20T08:01:21.691Z,9.30
2023-03-20T08:03:50.993Z,9.40
2023-03-20T08:06:22.330Z,9.40
2023-03-20T08:08:52.720Z,9.40
2023-03-20T08:11:24.510Z,9.40
2023-03-20T08:13:54.675Z,9.50
2023-03-20T08:16:27.610Z,9.60
2023-03-20T08:19:01.513Z,9.60
2023-03-20T08:21:34.473Z,9.70
2023-03-20T08:24:03.463Z,9.70
2023-03-20T08:26:33.441Z,9.70
2023-03-20T08:29:03.766Z,9.70
2023-03-20T08:31:34.177Z,9.70
2023-03-20T08:34:03.483Z,9.80
2023-03-20T08:36:36.410Z,9.80
2023-03-20T08:39:06.310Z,9.80
2023-03-20T08:41:45.005Z,9.90
2023-03-20T08:44:13.893Z,9.80
2023-03-20T08:46:55.236Z,9.70
2023-03-20T08:49:24.774Z,9.70
2023-03-20T08:51:54.513Z,9.70
2023-03-20T08:54:30.645Z,9.70
2023-03-20T08:57:03.394Z,9.70
2023-03-20T08:59:33.177Z,9.80
2023-03-20T09:02:05.315Z,9.80
2023-03-20T09:04:40.262Z,9.90
2023-03-20T09:07:22.078Z,9.90
2023-03-20T09:09:56.400Z,10.10
2023-03-20T09:12:32.854Z,10.00
2023-03-20T09:15:02.872Z,10.00
2023-03-20T09:17:32.960Z,10.00
2023-03-20T09:20:05.417Z,10.00
2023-03-20T09:22:35.844Z,10.10
2023-03-20T09:25:06.313Z,10.10
2023-03-20T09:28:05.314Z,10.10
2023-03-20T09:30:39.420Z,10.10
2023-03-20T09:33:09.425Z,10.00
2023-03-20T09:35:38.007Z,10.00
2023-03-20T09:38:06.999Z,10.00
2023-03-20T09:40:51.013Z,10.00
2023-03-20T09:43:45.912Z,10.10
2023-03-20T09:46:29.883Z,10.10
2023-03-20T09:49:08.961Z,10.10
2023-03-20T09:51:44.325Z,10.10
2023-03-20T09:54:21.189Z,10.10
2023-03-20T09:56:51.323Z,10.10
2023-03-20T09:59:22.143Z,10.10
2023-03-20T10:01:54.084Z,10.10
2023-03-20T10:04:27.731Z,10.20
2023-03-20T10:06:56.801Z,10.20
2023-03-20T10:09:27.143Z,10.20
2023-03-20T10:12:15.164Z,10.20
2023-03-20T10:14:54.756Z,10.20
2023-03-20T10:17:36.899Z,10.10
2023-03-20T10:20:15.082Z,10.10
2023-03-20T10:22:48.748Z,10.30
2023-03-20T10:25:24.050Z,10.50
2023-03-20T10:27:59.325Z,10.70
2023-03-20T10:30:52.566Z,10.80
2023-03-20T10:33:34.832Z,10.70
2023-03-20T10:36:21.771Z,10.60
2023-03-20T10:38:59.314Z,10.70
2023-03-20T10:41:33.912Z,10.70
2023-03-20T10:44:04.542Z,10.80
2023-03-20T10:46:36.986Z,11.00
2023-03-20T10:49:12.219Z,11.00
2023-03-20T10:51:47.652Z,11.20
2023-03-20T10:54:27.938Z,11.00
2023-03-20T10:57:01.296Z,10.90
2023-03-20T10:59:34.122Z,10.80
2023-03-20T11:02:03.653Z,10.90
2023-03-20T11:04:32.416Z,11.00
2023-03-20T11:07:10.345Z,10.90
2023-03-20T11:09:39.328Z,10.90
2023-03-20T11:12:16.778Z,10.90
2023-03-20T11:14:45.773Z,10.90
2023-03-20T11:17:14.818Z,10.80
2023-03-20T11:19:44.003Z,10.70
2023-03-20T11:22:25.759Z,10.70
2023-03-20T11:24:58.979Z,10.60
2023-03-20T11:27:29.616Z,10.60
2023-03-20T11:30:00.054Z,10.70
2023-03-20T11:32:31.973Z,10.80
2023-03-20T11:35:13.294Z,10.90
2023-03-20T11:37:48.749Z,11.00
2023-03-20T11:40:22.893Z,11.00
2023-03-20T11:42:57.195Z,11.10
2023-03-20T11:45:27.393Z,11.30
2023-03-20T11:47:58.304Z,11.70
2023-03-20T11:50:32.787Z,11.90
2023-03-20T11:53:05.293Z,12.10
2023-03-20T11:55:36.143Z,12.10
2023-03-20T11:58:08.139Z,11.90
2023-03-20T12:00:39.502Z,11.80
2023-03-20T12:03:40.814Z,11.60
2023-03-20T12:06:15.150Z,11.50
2023-03-20T12:08:50.454Z,11.20
2023-03-20T12:11:50.807Z,11.20
2023-03-20T12:14:29.952Z,11.20
2023-03-20T12:17:09.389Z,11.20
2023-03-20T12:20:05.462Z,11.20
2023-03-20T12:22:43.635Z,11.00
2023-03-20T12:25:23.622Z,11.00
2023-03-20T12:28:06.597Z,11.10
2023-03-20T12:30:46.597Z,11.10
2023-03-20T12:33:23.939Z,11.10
2023-03-20T12:35:55.700Z,11.10
2023-03-20T12:38:30.277Z,11.10
2023-03-20T12:41:10.529Z,11.10
2023-03-20T12:43:54.646Z,11.20
2023-03-20T12:46:32.887Z,11.20
2023-03-20T12:49:13.476Z,11.40
2023-03-20T12:51:55.272Z,11.30
2023-03-20T12:54:41.900Z,11.40
2023-03-20T12:57:24.187Z,11.60
2023-03-20T13:00:11.885Z,11.70
2023-03-20T13:03:01.665Z,11.70
2023-03-20T13:05:44.129Z,11.80
2023-03-20T13:08:37.216Z,12.00
2023-03-20T13:11:14.867Z,12.10
2023-03-20T13:13:51.792Z,12.10
2023-03-20T13:16:29.499Z,12.10
2023-03-20T13:19:04.049Z,11.90
2023-03-20T13:21:42.402Z,11.70
2023-03-20T13:24:24.127Z,11.60
2023-03-20T13:27:01.938Z,11.40
2023-03-20T13:29:44.048Z,11.10
2023-03-20T13:32:26.157Z,11.10
2023-03-20T13:35:06.508Z,11.00
2023-03-20T13:37:39.192Z,11.00
2023-03-20T13:40:16.053Z,10.90
2023-03-20T13:42:51.215Z,10.80
2023-03-20T13:45:36.523Z,10.80
2023-03-20T13:48:19.802Z,10.70
2023-03-20T13:50:53.374Z,10.70
2023-03-20T13:53:30.842Z,10.60
2023-03-20T13:56:07.139Z,10.50
2023-03-20T13:59:08.339Z,10.50
2023-03-20T14:01:50.996Z,10.40
2023-03-20T14:04:24.209Z,10.40
2023-03-20T14:06:58.057Z,10.30
2023-03-20T14:09:33.216Z,10.30
2023-03-20T14:12:08.867Z,10.30
2023-03-20T14:14:44.254Z,10.40
2023-03-20T14:17:22.730Z,10.40
2023-03-20T14:19:52.799Z,10.40
2023-03-20T14:22:23.853Z,10.40
2023-03-20T14:24:59.775Z,10.40
2023-03-20T14:27:43.947Z,10.50
2023-03-20T14:30:44.658Z,10.50
2023-03-20T14:33:31.513Z,10.50
2023-03-20T14:36:19.486Z,10.50
2023-03-20T14:38:57.105Z,10.50
2023-03-20T14:41:32.889Z,10.60
2023-03-20T14:44:16.712Z,10.60
2023-03-20T14:46:52.894Z,10.60
2023-03-20T14:49:35.826Z,10.60
2023-03-20T14:52:22.211Z,10.60
2023-03-20T14:54:54.734Z,10.50
2023-03-20T14:57:54.796Z,10.50
2023-03-20T15:00:26.517Z,10.60
2023-03-20T15:03:00.229Z,10.70
2023-03-20T15:05:35.454Z,10.70
2023-03-20T15:08:08.632Z,10.70
2023-03-20T15:10:46.420Z,10.70
2023-03-20T15:13:17.038Z,10.80
2023-03-20T15:15:57.193Z,10.70
2023-03-20T15:18:28.793Z,10.60
2023-03-20T15:20:59.749Z,10.60
2023-03-20T15:23:29.704Z,10.50
2023-03-20T15:26:02.558Z,10.50
2023-03-20T15:28:31.669Z,10.50
2023-03-20T15:31:02.714Z,10.60
2023-03-20T15:33:35.439Z,10.60
2023-03-20T15:36:17.214Z,10.60
2023-03-20T15:38:47.703Z,10.70
2023-03-20T15:41:27.397Z,10.70
2023-03-20T15:44:05.604Z,10.60
2023-03-20T15:46:37.207Z,10.50
2023-03-20T15:49:06.659Z,10.50
2023-03-20T15:51:37.424Z,10.50
2023-03-20T15:54:08.209Z,10.40
2023-03-20T15:56:42.938Z,10.40
2023-03-20T15:59:15.831Z,10.40
2023-03-20T16:01:45.646Z,10.30
2023-03-20T16:04:17.106Z,10.30
2023-03-20T16:06:55.616Z,10.20
2023-03-20T16:09:24.908Z,10.20
2023-03-20T16:11:59.316Z,10.10
2023-03-20T16:14:31.212Z,10.20
2023-03-20T16:17:03.617Z,10.00
2023-03-20T16:19:32.506Z,10.00
2023-03-20T16:22:05.938Z,10.00
2023-03-20T16:24:39.437Z,10.00
2023-03-20T16:27:09.249Z,9.90
2023-03-20T16:29:38.655Z,9.90
2023-03-20T16:32:17.228Z,9.90
2023-03-20T16:34:52.268Z,9.90
2023-03-20T16:37:28.254Z,9.90
2023-03-20T16:40:18.562Z,9.90
2023-03-20T16:42:47.747Z,9.90
2023-03-20T16:45:23.346Z,9.80
2023-03-20T16:47:51.994Z,9.80
2023-03-20T16:50:23.361Z,9.70
2023-03-20T16:52:58.712Z,9.70
2023-03-20T16:55:31.675Z,9.60
2023-03-20T16:58:01.466Z,9.60
2023-03-20T17:00:32.980Z,9.60
2023-03-20T17:03:15.113Z,9.60
2023-03-20T17:05:49.296Z,9.60
2023-03-20T17:08:27.424Z,9.60
2023-03-20T17:11:04.148Z,9.60
2023-03-20T17:13:33.322Z,9.60
2023-03-20T17:16:02.276Z,9.60
2023-03-20T17:18:31.162Z,9.60
2023-03-20T17:21:00.431Z,9.60
2023-03-20T17:23:31.342Z,9.60
2023-03-20T17:26:00.099Z,9.50
2023-03-20T17:28:42.539Z,9.50
2023-03-20T17:31:16.866Z,9.50
2023-03-20T17:33:46.517Z,9.50
2023-03-20T17:36:23.073Z,9.40
2023-03-20T17:38:57.953Z,9.40
2023-03-20T17:41:33.873Z,9.40
2023-03-20T17:44:10.240Z,9.40
2023-03-20T17:46:57.104Z,9.40
2023-03-20T17:49:32.356Z,9.40
2023-03-20T17:52:27.777Z,9.30
2023-03-20T17:55:03.553Z,9.30
2023-03-20T17:57:39.331Z,9.30
2023-03-20T18:00:18.281Z,9.30
2023-03-20T18:02:48.059Z,9.20
2023-03-20T18:05:45.077Z,9.20
2023-03-20T18:08:17.768Z,9.20
2023-03-20T18:10:55.309Z,9.20
2023-03-20T18:13:32.036Z,9.20
2023-03-20T18:16:07.264Z,9.20
2023-03-20T18:18:43.513Z,9.20
2023-03-20T18:21:18.878Z,9.20
2023-03-20T18:23:51.175Z,9.20
2023-03-20T18:26:23.513Z,9.20
2023-03-20T18:28:58.099Z,9.30
2023-03-20T18:31:30.206Z,9.20
2023-03-20T18:34:01.055Z,9.30
2023-03-20T18:36:31.240Z,9.30
2023-03-20T18:39:08.094Z,9.30
2023-03-20T18:41:41.177Z,9.30
2023-03-20T18:44:10.523Z,9.30
2023-03-20T18:46:42.446Z,9.30
2023-03-20T18:49:17.005Z,9.30
2023-03-20T18:51:50.147Z,9.30
2023-03-20T18:54:20.595Z,9.30
2023-03-20T18:56:56.597Z,9.30
2023-03-20T18:59:29.278Z,9.30
2023-03-20T19:02:01.546Z,9.30
2023-03-20T19:04:35.726Z,9.30
2023-03-20T19:07:06.148Z,9.30
2023-03-20T19:09:38.096Z,9.40
2023-03-20T19:12:09.377Z,9.30
2023-03-20T19:14:38.603Z,9.30
2023-03-20T19:17:08.178Z,9.30
2023-03-20T19:19:38.156Z,9.30
2023-03-20T19:22:13.068Z,9.20
2023-03-20T19:24:45.865Z,9.20
2023-03-20T19:27:20.008Z,9.30
2023-03-20T19:29:53.988Z,9.30
2023-03-20T19:32:27.889Z,9.30
2023-03-20T19:35:46.889Z,9.20
2023-03-20T19:37:55.390Z,9.20
2023-03-20T19:40:36.512Z,9.20
2023-03-20T19:43:10.158Z,9.10
2023-03-20T19:45:44.147Z,9.10
2023-03-20T19:48:18.317Z,9.20
2023-03-20T19:50:51.205Z,9.20
2023-03-20T19:53:29.674Z,9.20
2023-03-20T19:56:02.656Z,9.20
2023-03-20T19:58:33.574Z,9.20
2023-03-20T20:01:13.958Z,9.20
2023-03-20T20:03:49.796Z,9.20
2023-03-20T20:06:22.241Z,9.10
2023-03-20T20:08:52.283Z,9.10
2023-03-20T20:11:24.703Z,9.20
2023-03-20T20:14:06.258Z,9.10
2023-03-20T20:16:37.117Z,9.10
2023-03-20T20:19:08.984Z,9.20
2023-03-20T20:24:32.510Z,9.10
2023-03-20T20:27:16.905Z,9.10
2023-03-20T20:29:51.548Z,9.10
2023-03-20T20:32:23.366Z,9.10
2023-03-20T20:35:34.990Z,9.10
2023-03-20T20:40:35.376Z,9.00
2023-03-20T20:43:10.256Z,9.00
2023-03-20T20:45:45.297Z,9.10
2023-03-20T20:48:17.600Z,9.10
2023-03-20T20:50:46.822Z,9.00
2023-03-20T20:53:18.493Z,9.10
2023-03-20T20:55:49.986Z,9.00
2023-03-20T20:58:22.032Z,9.10
2023-03-20T21:00:55.484Z,9.00
2023-03-20T21:03:27.193Z,9.10
2023-03-20T21:05:58.560Z,9.10
2023-03-20T21:08:28.519Z,9.10
2023-03-20T21:11:04.874Z,9.00
2023-03-20T21:13:34.718Z,9.10
2023-03-20T21:16:13.283Z,9.10
2023-03-20T21:18:43.771Z,9.00
2023-03-20T21:21:16.154Z,9.00
2023-03-20T21:23:45.629Z,9.00
2023-03-20T21:26:22.493Z,9.00
2023-03-20T21:28:51.622Z,9.00
2023-03-20T21:31:31.458Z,9.00
2023-03-20T21:34:06.277Z,9.00
2023-03-20T21:36:35.317Z,9.00
2023-03-20T21:39:09.246Z,9.00
2023-03-20T21:41:39.772Z,9.00
2023-03-20T21:44:16.636Z,9.00
2023-03-20T22:10:18.606Z,9.00
2023-03-20T22:18:56.049Z,9.10
2023-03-20T22:24:14.919Z,9.10
2023-03-20T22:27:10.825Z,9.10
2023-03-20T22:44:24.794Z,9.10
2023-03-20T22:46:19.540Z,9.10
2023-03-20T22:48:51.177Z,9.10
2023-03-20T22:51:35.190Z,9.10
2023-03-20T22:54:18.792Z,9.10
2023-03-20T22:56:56.832Z,9.10
2023-03-20T22:59:26.593Z,9.00
2023-03-20T23:02:00.279Z,9.10
2023-03-20T23:04:30.236Z,9.10
2023-03-20T23:07:02.317Z,9.10
2023-03-20T23:09:33.040Z,9.10
2023-03-20T23:12:01.967Z,9.10
2023-03-20T23:14:36.269Z,9.10
2023-03-20T23:17:11.898Z,9.10
2023-03-20T23:19:47.729Z,9.10
2023-03-20T23:22:17.922Z,9.10
2023-03-20T23:24:49.301Z,9.10
2023-03-20T23:27:20.528Z,9.10
2023-03-20T23:29:49.035Z,9.20
2023-03-20T23:32:17.886Z,9.10
2023-03-20T23:34:47.898Z,9.10
2023-03-20T23:37:16.677Z,9.20
2023-03-20T23:39:49.677Z,9.20
2023-03-20T23:42:29.962Z,9.20
2023-03-20T23:45:07.186Z,9.20
2023-03-20T23:47:52.778Z,9.20
2023-03-20T23:50:49.705Z,9.20
2023-03-20T23:53:29.366Z,9.20
2023-03-20T23:56:00.112Z,9.20
2023-03-20T23:58:30.631Z,9.20
